sensor_id;sensor_type;location;lat;lon;timestamp;pressure;altitude;pressure_sealevel;temperature;humidity
62458;BME280;48509;52.122;5.250;2022-09-30T00:00:25;100821.0;;;7.22;93.19
62458;BME280;48509;52.122;5.250;2022-09-30T00:02:01;100821.0;;;7.22;92.57
62458;BME280;48509;52.122;5.250;2022-09-30T00:03:37;100823.0;;;7.25;92.19
62458;BME280;48509;52.122;5.250;2022-09-30T00:06:51;100820.0;;;7.21;92.07
62458;BME280;48509;52.122;5.250;2022-09-30T00:08:29;100818.0;;;7.2;92.37
62458;BME280;48509;52.122;5.250;2022-09-30T00:10:07;100821.0;;;7.2;92.36
62458;BME280;48509;52.122;5.250;2022-09-30T00:13:21;100818.0;;;7.14;92.37
62458;BME280;48509;52.122;5.250;2022-09-30T00:14:57;100822.0;;;7.07;92.31
62458;BME280;48509;52.122;5.250;2022-09-30T00:16:35;100822.0;;;7.19;92.34
62458;BME280;48509;52.122;5.250;2022-09-30T00:19:48;100823.0;;;7.17;92.09
62458;BME280;48509;52.122;5.250;2022-09-30T00:21:25;100820.0;;;7.09;92.45
62458;BME280;48509;52.122;5.250;2022-09-30T00:23:02;100817.0;;;7.05;92.68
62458;BME280;48509;52.122;5.250;2022-09-30T00:24:39;100820.0;;;7.1;92.0
62458;BME280;48509;52.122;5.250;2022-09-30T00:27:54;100822.0;;;7.09;92.41
62458;BME280;48509;52.122;5.250;2022-09-30T00:29:30;100820.0;;;7.1;92.46
62458;BME280;48509;52.122;5.250;2022-09-30T00:31:11;100816.0;;;7.1;92.6
62458;BME280;48509;52.122;5.250;2022-09-30T00:34:23;100818.0;;;7.07;92.11
62458;BME280;48509;52.122;5.250;2022-09-30T00:36:00;100818.0;;;7.03;92.07
62458;BME280;48509;52.122;5.250;2022-09-30T00:37:37;100822.0;;;6.98;92.33
62458;BME280;48509;52.122;5.250;2022-09-30T00:39:15;100820.0;;;7.03;92.75
62458;BME280;48509;52.122;5.250;2022-09-30T00:42:30;100826.0;;;7.02;92.76
62458;BME280;48509;52.122;5.250;2022-09-30T00:45:11;100822.0;;;7.03;91.76
62458;BME280;48509;52.122;5.250;2022-09-30T00:46:48;100830.0;;;7.03;92.54
62458;BME280;48509;52.122;5.250;2022-09-30T00:48:28;100833.0;;;7.04;92.07
62458;BME280;48509;52.122;5.250;2022-09-30T00:50:22;100831.0;;;7.06;91.96
62458;BME280;48509;52.122;5.250;2022-09-30T00:52:12;100828.0;;;7.08;91.66
62458;BME280;48509;52.122;5.250;2022-09-30T00:53:51;100822.0;;;7.06;91.53
62458;BME280;48509;52.122;5.250;2022-09-30T00:57:21;100827.0;;;7.02;91.83
62458;BME280;48509;52.122;5.250;2022-09-30T00:59:01;100831.0;;;7.05;92.79
62458;BME280;48509;52.122;5.250;2022-09-30T01:00:41;100831.0;;;7.01;92.57
62458;BME280;48509;52.122;5.250;2022-09-30T01:02:18;100828.0;;;6.99;93.33
62458;BME280;48509;52.122;5.250;2022-09-30T01:05:36;100827.0;;;7.0;93.57
62458;BME280;48509;52.122;5.250;2022-09-30T01:07:13;100821.0;;;7.05;93.03
62458;BME280;48509;52.122;5.250;2022-09-30T01:08:50;100817.0;;;7.11;93.12
62458;BME280;48509;52.122;5.250;2022-09-30T01:12:04;100819.0;;;7.07;92.48
62458;BME280;48509;52.122;5.250;2022-09-30T01:13:45;100816.0;;;7.19;92.36
62458;BME280;48509;52.122;5.250;2022-09-30T01:15:36;100820.0;;;7.14;92.78
62458;BME280;48509;52.122;5.250;2022-09-30T01:17:30;100818.0;;;7.21;92.1
62458;BME280;48509;52.122;5.250;2022-09-30T01:19:23;100819.0;;;7.23;91.84
62458;BME280;48509;52.122;5.250;2022-09-30T01:22:20;100816.0;;;7.16;91.64
62458;BME280;48509;52.122;5.250;2022-09-30T01:24:46;100812.0;;;7.16;92.08
62458;BME280;48509;52.122;5.250;2022-09-30T01:27:58;100818.0;;;7.18;91.59
62458;BME280;48509;52.122;5.250;2022-09-30T01:30:11;100822.0;;;7.07;91.87
62458;BME280;48509;52.122;5.250;2022-09-30T01:31:55;100822.0;;;7.02;91.76
62458;BME280;48509;52.122;5.250;2022-09-30T01:33:44;100828.0;;;7.02;91.85
62458;BME280;48509;52.122;5.250;2022-09-30T01:37:21;100830.0;;;7.02;91.68
62458;BME280;48509;52.122;5.250;2022-09-30T01:39:11;100833.0;;;7.05;91.25
62458;BME280;48509;52.122;5.250;2022-09-30T01:40:59;100832.0;;;7.04;91.08
62458;BME280;48509;52.122;5.250;2022-09-30T01:42:48;100835.0;;;6.94;91.32
62458;BME280;48509;52.122;5.250;2022-09-30T01:44:34;100835.0;;;6.95;92.37
62458;BME280;48509;52.122;5.250;2022-09-30T01:46:21;100834.0;;;6.98;92.54
62458;BME280;48509;52.122;5.250;2022-09-30T01:49:59;100836.0;;;7.02;92.0
62458;BME280;48509;52.122;5.250;2022-09-30T01:51:40;100830.0;;;7.05;92.24
62458;BME280;48509;52.122;5.250;2022-09-30T01:53:29;100826.0;;;7.12;92.65
62458;BME280;48509;52.122;5.250;2022-09-30T01:55:10;100828.0;;;7.12;92.94
62458;BME280;48509;52.122;5.250;2022-09-30T01:56:52;100834.0;;;7.11;92.77
62458;BME280;48509;52.122;5.250;2022-09-30T02:00:16;100837.0;;;7.1;92.24
62458;BME280;48509;52.122;5.250;2022-09-30T02:01:57;100840.0;;;7.13;92.03
62458;BME280;48509;52.122;5.250;2022-09-30T02:03:41;100842.0;;;7.18;91.58
62458;BME280;48509;52.122;5.250;2022-09-30T02:05:25;100841.0;;;7.18;91.87
62458;BME280;48509;52.122;5.250;2022-09-30T02:07:06;100840.0;;;7.18;92.22
62458;BME280;48509;52.122;5.250;2022-09-30T02:10:33;100837.0;;;7.19;92.19
62458;BME280;48509;52.122;5.250;2022-09-30T02:12:13;100835.0;;;7.28;92.42
62458;BME280;48509;52.122;5.250;2022-09-30T02:14:00;100839.0;;;7.32;92.85
62458;BME280;48509;52.122;5.250;2022-09-30T02:15:41;100838.0;;;7.33;92.76
62458;BME280;48509;52.122;5.250;2022-09-30T02:19:07;100836.0;;;7.38;93.35
62458;BME280;48509;52.122;5.250;2022-09-30T02:20:51;100838.0;;;7.38;93.42
62458;BME280;48509;52.122;5.250;2022-09-30T02:22:34;100837.0;;;7.43;93.67
62458;BME280;48509;52.122;5.250;2022-09-30T02:24:15;100839.0;;;7.46;94.02
62458;BME280;48509;52.122;5.250;2022-09-30T02:25:59;100834.0;;;7.49;93.3
62458;BME280;48509;52.122;5.250;2022-09-30T02:29:27;100836.0;;;7.57;93.41
62458;BME280;48509;52.122;5.250;2022-09-30T02:31:07;100840.0;;;7.62;92.5
62458;BME280;48509;52.122;5.250;2022-09-30T02:32:48;100841.0;;;7.7;92.14
62458;BME280;48509;52.122;5.250;2022-09-30T02:34:29;100833.0;;;7.65;92.36
62458;BME280;48509;52.122;5.250;2022-09-30T02:37:55;100836.0;;;7.67;92.86
62458;BME280;48509;52.122;5.250;2022-09-30T02:39:40;100835.0;;;7.67;93.43
62458;BME280;48509;52.122;5.250;2022-09-30T02:41:23;100833.0;;;7.68;93.5
62458;BME280;48509;52.122;5.250;2022-09-30T02:43:03;100832.0;;;7.67;93.53
62458;BME280;48509;52.122;5.250;2022-09-30T02:44:40;100833.0;;;7.64;93.4
62458;BME280;48509;52.122;5.250;2022-09-30T02:48:07;100836.0;;;7.66;92.79
62458;BME280;48509;52.122;5.250;2022-09-30T02:49:58;100833.0;;;7.62;93.26
62458;BME280;48509;52.122;5.250;2022-09-30T02:51:41;100836.0;;;7.69;92.57
62458;BME280;48509;52.122;5.250;2022-09-30T02:53:29;100831.0;;;7.66;93.08
62458;BME280;48509;52.122;5.250;2022-09-30T02:55:17;100832.0;;;7.61;93.02
62458;BME280;48509;52.122;5.250;2022-09-30T02:58:39;100830.0;;;7.63;92.94
62458;BME280;48509;52.122;5.250;2022-09-30T03:00:17;100828.0;;;7.59;92.73
62458;BME280;48509;52.122;5.250;2022-09-30T03:01:54;100832.0;;;7.66;91.88
62458;BME280;48509;52.122;5.250;2022-09-30T03:03:34;100838.0;;;7.54;92.06
62458;BME280;48509;52.122;5.250;2022-09-30T03:06:52;100836.0;;;7.5;92.52
62458;BME280;48509;52.122;5.250;2022-09-30T03:08:30;100837.0;;;7.42;92.13
62458;BME280;48509;52.122;5.250;2022-09-30T03:10:12;100842.0;;;7.43;92.44
62458;BME280;48509;52.122;5.250;2022-09-30T03:13:43;100843.0;;;7.42;92.54
62458;BME280;48509;52.122;5.250;2022-09-30T03:16:03;100842.0;;;7.37;92.25
62458;BME280;48509;52.122;5.250;2022-09-30T03:17:59;100844.0;;;7.5;91.74
62458;BME280;48509;52.122;5.250;2022-09-30T03:20:01;100840.0;;;7.56;91.48
62458;BME280;48509;52.122;5.250;2022-09-30T03:21:54;100840.0;;;7.92;89.96
62458;BME280;48509;52.122;5.250;2022-09-30T03:23:49;100842.0;;;7.68;89.86
62458;BME280;48509;52.122;5.250;2022-09-30T03:25:41;100845.0;;;7.46;91.12
62458;BME280;48509;52.122;5.250;2022-09-30T03:27:28;100855.0;;;7.39;91.76
62458;BME280;48509;52.122;5.250;2022-09-30T03:29:18;100855.0;;;7.32;91.79
62458;BME280;48509;52.122;5.250;2022-09-30T03:31:03;100858.0;;;7.2;91.73
62458;BME280;48509;52.122;5.250;2022-09-30T03:34:47;100863.0;;;7.13;91.57
62458;BME280;48509;52.122;5.250;2022-09-30T03:36:37;100868.0;;;7.05;92.19
62458;BME280;48509;52.122;5.250;2022-09-30T03:38:24;100874.0;;;7.12;92.36
62458;BME280;48509;52.122;5.250;2022-09-30T03:40:14;100873.0;;;7.06;91.94
62458;BME280;48509;52.122;5.250;2022-09-30T03:41:57;100872.0;;;6.96;92.57
62458;BME280;48509;52.122;5.250;2022-09-30T03:43:43;100878.0;;;6.94;92.57
62458;BME280;48509;52.122;5.250;2022-09-30T03:45:28;100881.0;;;6.94;92.22
62458;BME280;48509;52.122;5.250;2022-09-30T03:48:48;100883.0;;;7.01;92.62
62458;BME280;48509;52.122;5.250;2022-09-30T03:50:27;100882.0;;;6.9;92.1
62458;BME280;48509;52.122;5.250;2022-09-30T03:52:05;100888.0;;;6.86;92.38
62458;BME280;48509;52.122;5.250;2022-09-30T03:53:43;100883.0;;;6.82;92.41
62458;BME280;48509;52.122;5.250;2022-09-30T03:57:02;100880.0;;;6.84;93.1
62458;BME280;48509;52.122;5.250;2022-09-30T03:58:41;100882.0;;;6.81;93.24
62458;BME280;48509;52.122;5.250;2022-09-30T04:00:18;100886.0;;;6.74;92.89
62458;BME280;48509;52.122;5.250;2022-09-30T04:03:34;100889.0;;;6.76;93.3
62458;BME280;48509;52.122;5.250;2022-09-30T04:05:11;100885.0;;;6.81;92.96
62458;BME280;48509;52.122;5.250;2022-09-30T04:06:48;100885.0;;;6.82;92.58
62458;BME280;48509;52.122;5.250;2022-09-30T04:08:24;100892.0;;;6.8;92.84
62458;BME280;48509;52.122;5.250;2022-09-30T04:11:36;100890.0;;;6.74;92.3
62458;BME280;48509;52.122;5.250;2022-09-30T04:13:12;100886.0;;;6.72;92.49
62458;BME280;48509;52.122;5.250;2022-09-30T04:14:48;100889.0;;;6.77;92.59
62458;BME280;48509;52.122;5.250;2022-09-30T04:18:01;100892.0;;;6.75;92.81
62458;BME280;48509;52.122;5.250;2022-09-30T04:19:39;100899.0;;;6.64;92.54
62458;BME280;48509;52.122;5.250;2022-09-30T04:21:16;100902.0;;;6.6;92.75
62458;BME280;48509;52.122;5.250;2022-09-30T04:24:32;100902.0;;;6.65;92.91
62458;BME280;48509;52.122;5.250;2022-09-30T04:26:10;100902.0;;;6.58;92.67
62458;BME280;48509;52.122;5.250;2022-09-30T04:27:48;100907.0;;;6.62;92.41
62458;BME280;48509;52.122;5.250;2022-09-30T04:29:24;100912.0;;;6.59;91.66
62458;BME280;48509;52.122;5.250;2022-09-30T04:32:42;100912.0;;;6.58;91.82
62458;BME280;48509;52.122;5.250;2022-09-30T04:34:21;100919.0;;;6.55;91.91
62458;BME280;48509;52.122;5.250;2022-09-30T04:35:58;100920.0;;;6.49;91.67
62458;BME280;48509;52.122;5.250;2022-09-30T04:39:11;100914.0;;;6.52;91.56
62458;BME280;48509;52.122;5.250;2022-09-30T04:40:49;100915.0;;;6.55;91.33
62458;BME280;48509;52.122;5.250;2022-09-30T04:42:26;100922.0;;;6.49;91.59
62458;BME280;48509;52.122;5.250;2022-09-30T04:44:05;100920.0;;;6.45;91.38
62458;BME280;48509;52.122;5.250;2022-09-30T04:47:20;100923.0;;;6.46;91.64
62458;BME280;48509;52.122;5.250;2022-09-30T04:48:56;100925.0;;;6.44;91.8
62458;BME280;48509;52.122;5.250;2022-09-30T04:50:33;100925.0;;;6.42;91.61
62458;BME280;48509;52.122;5.250;2022-09-30T04:53:46;100922.0;;;6.51;91.75
62458;BME280;48509;52.122;5.250;2022-09-30T04:55:24;100928.0;;;6.44;91.91
62458;BME280;48509;52.122;5.250;2022-09-30T04:57:00;100920.0;;;6.42;92.22
62458;BME280;48509;52.122;5.250;2022-09-30T04:58:36;100920.0;;;6.5;92.36
62458;BME280;48509;52.122;5.250;2022-09-30T05:01:49;100923.0;;;6.51;92.31
62458;BME280;48509;52.122;5.250;2022-09-30T05:03:25;100932.0;;;6.43;92.51
62458;BME280;48509;52.122;5.250;2022-09-30T05:05:02;100937.0;;;6.41;92.34
62458;BME280;48509;52.122;5.250;2022-09-30T05:08:16;100936.0;;;6.34;92.44
62458;BME280;48509;52.122;5.250;2022-09-30T05:09:52;100940.0;;;6.29;92.62
62458;BME280;48509;52.122;5.250;2022-09-30T05:11:28;100944.0;;;6.25;92.12
62458;BME280;48509;52.122;5.250;2022-09-30T05:14:40;100946.0;;;6.32;91.84
62458;BME280;48509;52.122;5.250;2022-09-30T05:16:17;100946.0;;;6.25;92.52
62458;BME280;48509;52.122;5.250;2022-09-30T05:17:54;100945.0;;;6.23;92.17
62458;BME280;48509;52.122;5.250;2022-09-30T05:19:30;100943.0;;;6.23;92.44
62458;BME280;48509;52.122;5.250;2022-09-30T05:22:44;100940.0;;;6.28;92.38
62458;BME280;48509;52.122;5.250;2022-09-30T05:24:20;100938.0;;;6.35;92.24
62458;BME280;48509;52.122;5.250;2022-09-30T05:25:57;100945.0;;;6.38;92.21
62458;BME280;48509;52.122;5.250;2022-09-30T05:29:10;100952.0;;;6.25;92.14
62458;BME280;48509;52.122;5.250;2022-09-30T05:30:46;100952.0;;;6.27;92.93
62458;BME280;48509;52.122;5.250;2022-09-30T05:32:24;100955.0;;;6.24;93.04
62458;BME280;48509;52.122;5.250;2022-09-30T05:35:38;100951.0;;;6.19;93.32
62458;BME280;48509;52.122;5.250;2022-09-30T05:37:15;100953.0;;;6.26;94.05
62458;BME280;48509;52.122;5.250;2022-09-30T05:38:52;100953.0;;;6.29;93.83
62458;BME280;48509;52.122;5.250;2022-09-30T05:40:29;100950.0;;;6.35;93.98
62458;BME280;48509;52.122;5.250;2022-09-30T05:43:44;100951.0;;;6.46;93.22
62458;BME280;48509;52.122;5.250;2022-09-30T05:45:20;100955.0;;;6.4;92.85
62458;BME280;48509;52.122;5.250;2022-09-30T05:46:58;100953.0;;;6.29;92.41
62458;BME280;48509;52.122;5.250;2022-09-30T05:50:11;100958.0;;;6.31;92.6
62458;BME280;48509;52.122;5.250;2022-09-30T05:51:47;100962.0;;;6.3;92.54
62458;BME280;48509;52.122;5.250;2022-09-30T05:53:23;100960.0;;;6.33;92.79
62458;BME280;48509;52.122;5.250;2022-09-30T05:56:37;100962.0;;;6.36;92.93
62458;BME280;48509;52.122;5.250;2022-09-30T05:58:14;100965.0;;;6.46;92.98
62458;BME280;48509;52.122;5.250;2022-09-30T05:59:50;100967.0;;;6.36;93.41
62458;BME280;48509;52.122;5.250;2022-09-30T06:01:27;100970.0;;;6.41;93.39
62458;BME280;48509;52.122;5.250;2022-09-30T06:04:39;100967.0;;;6.44;93.59
62458;BME280;48509;52.122;5.250;2022-09-30T06:06:15;100962.0;;;6.46;94.21
62458;BME280;48509;52.122;5.250;2022-09-30T06:07:52;100971.0;;;6.47;93.78
62458;BME280;48509;52.122;5.250;2022-09-30T06:11:08;100964.0;;;6.67;93.34
62458;BME280;48509;52.122;5.250;2022-09-30T06:12:46;100964.0;;;6.72;93.68
62458;BME280;48509;52.122;5.250;2022-09-30T06:14:22;100973.0;;;6.72;93.82
62458;BME280;48509;52.122;5.250;2022-09-30T06:15:59;100977.0;;;6.77;94.43
62458;BME280;48509;52.122;5.250;2022-09-30T06:19:12;100975.0;;;6.98;93.73
62458;BME280;48509;52.122;5.250;2022-09-30T06:26:15;100970.0;;;6.98;94.04
62458;BME280;48509;52.122;5.250;2022-09-30T06:27:51;100972.0;;;7.05;94.33
62458;BME280;48509;52.122;5.250;2022-09-30T06:29:27;100974.0;;;7.06;94.65
62458;BME280;48509;52.122;5.250;2022-09-30T06:31:05;100980.0;;;7.14;94.43
62458;BME280;48509;52.122;5.250;2022-09-30T06:32:41;100977.0;;;7.11;94.86
62458;BME280;48509;52.122;5.250;2022-09-30T06:35:55;100980.0;;;7.23;94.59
62458;BME280;48509;52.122;5.250;2022-09-30T06:37:31;100981.0;;;7.3;94.33
62458;BME280;48509;52.122;5.250;2022-09-30T06:39:07;100977.0;;;7.3;94.98
62458;BME280;48509;52.122;5.250;2022-09-30T06:42:23;100981.0;;;7.51;94.08
62458;BME280;48509;52.122;5.250;2022-09-30T06:44:00;100978.0;;;7.5;93.98
62458;BME280;48509;52.122;5.250;2022-09-30T06:45:37;100987.0;;;7.53;94.64
62458;BME280;48509;52.122;5.250;2022-09-30T06:48:53;100986.0;;;7.62;94.52
62458;BME280;48509;52.122;5.250;2022-09-30T06:50:30;100986.0;;;7.62;94.62
62458;BME280;48509;52.122;5.250;2022-09-30T06:52:08;100985.0;;;7.68;94.88
62458;BME280;48509;52.122;5.250;2022-09-30T06:53:44;100987.0;;;7.81;94.69
62458;BME280;48509;52.122;5.250;2022-09-30T06:57:04;100989.0;;;7.84;94.75
62458;BME280;48509;52.122;5.250;2022-09-30T06:58:42;100983.0;;;7.88;95.39
62458;BME280;48509;52.122;5.250;2022-09-30T07:00:18;100985.0;;;7.94;95.76
62458;BME280;48509;52.122;5.250;2022-09-30T07:03:32;100985.0;;;8.06;95.95
62458;BME280;48509;52.122;5.250;2022-09-30T07:05:10;100987.0;;;8.18;96.43
62458;BME280;48509;52.122;5.250;2022-09-30T07:06:46;100989.0;;;8.39;95.89
62458;BME280;48509;52.122;5.250;2022-09-30T07:08:26;100996.0;;;8.47;96.4
62458;BME280;48509;52.122;5.250;2022-09-30T07:11:42;100997.0;;;8.69;95.76
62458;BME280;48509;52.122;5.250;2022-09-30T07:13:19;100999.0;;;8.76;95.11
62458;BME280;48509;52.122;5.250;2022-09-30T07:14:56;100995.0;;;8.8;95.21
62458;BME280;48509;52.122;5.250;2022-09-30T07:18:09;100993.0;;;8.8;95.25
62458;BME280;48509;52.122;5.250;2022-09-30T07:19:45;100993.0;;;8.96;94.6
62458;BME280;48509;52.122;5.250;2022-09-30T07:21:21;100987.0;;;8.92;94.6
62458;BME280;48509;52.122;5.250;2022-09-30T07:26:11;100985.0;;;9.11;94.06
62458;BME280;48509;52.122;5.250;2022-09-30T07:27:48;100984.0;;;9.06;94.58
62458;BME280;48509;52.122;5.250;2022-09-30T07:29:24;100984.0;;;9.19;94.22
62458;BME280;48509;52.122;5.250;2022-09-30T07:32:46;100987.0;;;9.11;94.51
62458;BME280;48509;52.122;5.250;2022-09-30T07:34:23;100977.0;;;9.18;93.86
62458;BME280;48509;52.122;5.250;2022-09-30T07:36:00;100981.0;;;9.16;94.67
62458;BME280;48509;52.122;5.250;2022-09-30T07:37:36;100977.0;;;9.23;94.61
62458;BME280;48509;52.122;5.250;2022-09-30T07:40:51;100976.0;;;9.28;94.7
62458;BME280;48509;52.122;5.250;2022-09-30T07:42:32;100978.0;;;9.5;94.15
62458;BME280;48509;52.122;5.250;2022-09-30T07:44:13;100972.0;;;9.52;94.11
62458;BME280;48509;52.122;5.250;2022-09-30T07:47:27;100975.0;;;9.55;94.75
62458;BME280;48509;52.122;5.250;2022-09-30T07:49:06;100980.0;;;9.6;94.52
62458;BME280;48509;52.122;5.250;2022-09-30T07:50:52;100976.0;;;9.71;94.4
62458;BME280;48509;52.122;5.250;2022-09-30T07:52:28;100972.0;;;9.75;94.6
62458;BME280;48509;52.122;5.250;2022-09-30T07:55:43;100968.0;;;9.84;95.07
62458;BME280;48509;52.122;5.250;2022-09-30T07:57:20;100971.0;;;9.89;95.73
62458;BME280;48509;52.122;5.250;2022-09-30T07:58:58;100969.0;;;10.13;94.57
62458;BME280;48509;52.122;5.250;2022-09-30T08:00:37;100971.0;;;10.24;94.44
62458;BME280;48509;52.122;5.250;2022-09-30T08:03:54;100970.0;;;10.39;94.27
62458;BME280;48509;52.122;5.250;2022-09-30T08:05:31;100968.0;;;10.46;94.65
62458;BME280;48509;52.122;5.250;2022-09-30T08:07:08;100968.0;;;10.61;94.76
62458;BME280;48509;52.122;5.250;2022-09-30T08:10:21;100968.0;;;10.7;94.93
62458;BME280;48509;52.122;5.250;2022-09-30T08:11:57;100964.0;;;10.86;94.59
62458;BME280;48509;52.122;5.250;2022-09-30T08:13:37;100962.0;;;11.02;94.31
62458;BME280;48509;52.122;5.250;2022-09-30T08:15:13;100959.0;;;11.2;93.96
62458;BME280;48509;52.122;5.250;2022-09-30T08:18:26;100958.0;;;11.33;94.02
62458;BME280;48509;52.122;5.250;2022-09-30T08:20:04;100958.0;;;11.44;93.75
62458;BME280;48509;52.122;5.250;2022-09-30T08:21:40;100962.0;;;11.6;94.02
62458;BME280;48509;52.122;5.250;2022-09-30T08:24:53;100965.0;;;11.69;93.77
62458;BME280;48509;52.122;5.250;2022-09-30T08:26:30;100966.0;;;11.85;93.36
62458;BME280;48509;52.122;5.250;2022-09-30T08:28:06;100963.0;;;11.91;92.87
62458;BME280;48509;52.122;5.250;2022-09-30T08:31:19;100967.0;;;12.02;92.4
62458;BME280;48509;52.122;5.250;2022-09-30T08:34:34;100980.0;;;12.21;91.64
62458;BME280;48509;52.122;5.250;2022-09-30T08:36:12;100981.0;;;12.2;90.96
62458;BME280;48509;52.122;5.250;2022-09-30T08:39:27;100981.0;;;12.4;90.87
62458;BME280;48509;52.122;5.250;2022-09-30T08:41:16;100974.0;;;12.32;90.39
62458;BME280;48509;52.122;5.250;2022-09-30T08:43:13;100972.0;;;12.42;94.52
62458;BME280;48509;52.122;5.250;2022-09-30T08:45:02;100965.0;;;12.58;92.08
62458;BME280;48509;52.122;5.250;2022-09-30T08:46:46;100964.0;;;12.82;91.47
62458;BME280;48509;52.122;5.250;2022-09-30T08:50:21;100962.0;;;13.01;91.51
62458;BME280;48509;52.122;5.250;2022-09-30T08:52:11;100967.0;;;13.11;92.41
62458;BME280;48509;52.122;5.250;2022-09-30T08:53:50;100964.0;;;13.3;91.04
62458;BME280;48509;52.122;5.250;2022-09-30T08:55:32;100965.0;;;13.49;90.43
62458;BME280;48509;52.122;5.250;2022-09-30T08:57:18;100968.0;;;13.66;90.76
62458;BME280;48509;52.122;5.250;2022-09-30T09:00:39;100966.0;;;13.65;88.94
62458;BME280;48509;52.122;5.250;2022-09-30T09:02:20;100977.0;;;13.77;88.6
62458;BME280;48509;52.122;5.250;2022-09-30T09:04:00;100978.0;;;13.88;89.4
62458;BME280;48509;52.122;5.250;2022-09-30T09:05:44;100987.0;;;14.03;86.64
62458;BME280;48509;52.122;5.250;2022-09-30T09:09:34;100992.0;;;14.11;85.41
62458;BME280;48509;52.122;5.250;2022-09-30T09:11:22;100988.0;;;14.24;84.87
62458;BME280;48509;52.122;5.250;2022-09-30T09:13:31;100983.0;;;14.48;84.87
62458;BME280;48509;52.122;5.250;2022-09-30T09:15:29;100982.0;;;14.65;84.36
62458;BME280;48509;52.122;5.250;2022-09-30T09:17:36;100980.0;;;14.75;84.59
62458;BME280;48509;52.122;5.250;2022-09-30T09:19:22;100978.0;;;14.79;82.46
62458;BME280;48509;52.122;5.250;2022-09-30T09:21:12;100977.0;;;14.85;82.15
62458;BME280;48509;52.122;5.250;2022-09-30T09:22:53;100973.0;;;15.02;82.19
62458;BME280;48509;52.122;5.250;2022-09-30T09:24:34;100977.0;;;14.98;81.91
62458;BME280;48509;52.122;5.250;2022-09-30T09:27:55;100975.0;;;14.9;81.53
62458;BME280;48509;52.122;5.250;2022-09-30T09:29:38;100975.0;;;15.02;81.06
62458;BME280;48509;52.122;5.250;2022-09-30T09:31:19;100980.0;;;15.17;81.06
62458;BME280;48509;52.122;5.250;2022-09-30T09:32:59;100978.0;;;15.2;80.69
62458;BME280;48509;52.122;5.250;2022-09-30T09:36:25;100975.0;;;15.29;79.45
62458;BME280;48509;52.122;5.250;2022-09-30T09:38:34;100976.0;;;15.21;77.87
62458;BME280;48509;52.122;5.250;2022-09-30T09:40:21;100977.0;;;15.23;79.12
62458;BME280;48509;52.122;5.250;2022-09-30T09:42:22;100961.0;;;15.32;78.3
62458;BME280;48509;52.122;5.250;2022-09-30T09:44:12;100953.0;;;15.42;79.19
62458;BME280;48509;52.122;5.250;2022-09-30T09:45:57;100950.0;;;15.36;78.11
62458;BME280;48509;52.122;5.250;2022-09-30T09:47:38;100949.0;;;15.48;77.63
62458;BME280;48509;52.122;5.250;2022-09-30T09:51:18;100956.0;;;15.59;77.7
62458;BME280;48509;52.122;5.250;2022-09-30T09:53:08;100955.0;;;15.59;75.97
62458;BME280;48509;52.122;5.250;2022-09-30T09:54:55;100964.0;;;15.54;76.19
62458;BME280;48509;52.122;5.250;2022-09-30T09:56:32;100965.0;;;15.47;76.27
62458;BME280;48509;52.122;5.250;2022-09-30T09:58:11;100970.0;;;15.53;74.19
62458;BME280;48509;52.122;5.250;2022-09-30T09:59:57;100974.0;;;15.6;75.48
62458;BME280;48509;52.122;5.250;2022-09-30T10:03:19;100967.0;;;15.67;75.3
62458;BME280;48509;52.122;5.250;2022-09-30T10:05:00;100967.0;;;15.76;76.05
62458;BME280;48509;52.122;5.250;2022-09-30T10:06:43;100966.0;;;15.85;74.84
62458;BME280;48509;52.122;5.250;2022-09-30T10:08:23;100965.0;;;15.95;76.31
62458;BME280;48509;52.122;5.250;2022-09-30T10:12:17;100965.0;;;16.04;74.41
62458;BME280;48509;52.122;5.250;2022-09-30T10:14:00;100968.0;;;16.12;74.23
62458;BME280;48509;52.122;5.250;2022-09-30T10:15:41;100976.0;;;16.2;74.95
62458;BME280;48509;52.122;5.250;2022-09-30T10:17:19;100967.0;;;15.94;73.75
62458;BME280;48509;52.122;5.250;2022-09-30T10:18:57;100967.0;;;16.0;73.11
62458;BME280;48509;52.122;5.250;2022-09-30T10:22:18;100963.0;;;16.03;73.97
62458;BME280;48509;52.122;5.250;2022-09-30T10:23:56;100965.0;;;16.18;74.83
62458;BME280;48509;52.122;5.250;2022-09-30T10:25:33;100967.0;;;16.11;73.5
62458;BME280;48509;52.122;5.250;2022-09-30T10:27:26;100967.0;;;16.07;73.61
62458;BME280;48509;52.122;5.250;2022-09-30T10:31:04;100962.0;;;16.12;73.86
62458;BME280;48509;52.122;5.250;2022-09-30T10:32:41;100961.0;;;16.12;73.16
62458;BME280;48509;52.122;5.250;2022-09-30T10:34:22;100972.0;;;16.02;75.38
62458;BME280;48509;52.122;5.250;2022-09-30T10:36:08;100959.0;;;16.13;73.05
62458;BME280;48509;52.122;5.250;2022-09-30T10:37:49;100965.0;;;16.05;72.58
62458;BME280;48509;52.122;5.250;2022-09-30T10:41:08;100960.0;;;16.2;71.95
62458;BME280;48509;52.122;5.250;2022-09-30T10:42:45;100963.0;;;16.23;72.25
62458;BME280;48509;52.122;5.250;2022-09-30T10:44:23;100961.0;;;16.09;72.22
62458;BME280;48509;52.122;5.250;2022-09-30T10:46:03;100959.0;;;16.27;71.66
62458;BME280;48509;52.122;5.250;2022-09-30T10:49:24;100962.0;;;16.41;72.61
62458;BME280;48509;52.122;5.250;2022-09-30T10:51:03;100959.0;;;16.41;70.8
62458;BME280;48509;52.122;5.250;2022-09-30T10:52:57;100957.0;;;16.61;71.33
62458;BME280;48509;52.122;5.250;2022-09-30T10:54:48;100957.0;;;16.4;71.41
62458;BME280;48509;52.122;5.250;2022-09-30T10:56:43;100945.0;;;16.48;70.88
62458;BME280;48509;52.122;5.250;2022-09-30T11:00:13;100950.0;;;16.52;70.08
62458;BME280;48509;52.122;5.250;2022-09-30T11:01:52;100949.0;;;16.38;71.87
62458;BME280;48509;52.122;5.250;2022-09-30T11:03:38;100946.0;;;16.4;68.99
62458;BME280;48509;52.122;5.250;2022-09-30T11:05:21;100941.0;;;16.36;69.61
62458;BME280;48509;52.122;5.250;2022-09-30T11:07:02;100945.0;;;16.52;68.83
62458;BME280;48509;52.122;5.250;2022-09-30T11:10:35;100939.0;;;16.61;68.02
62458;BME280;48509;52.122;5.250;2022-09-30T11:12:22;100941.0;;;16.7;68.83
62458;BME280;48509;52.122;5.250;2022-09-30T11:14:15;100946.0;;;16.79;69.22
62458;BME280;48509;52.122;5.250;2022-09-30T11:16:00;100945.0;;;16.86;69.34
62458;BME280;48509;52.122;5.250;2022-09-30T11:17:46;100941.0;;;16.89;68.88
62458;BME280;48509;52.122;5.250;2022-09-30T11:19:30;100937.0;;;16.84;64.75
62458;BME280;48509;52.122;5.250;2022-09-30T11:22:58;100938.0;;;17.0;65.75